Time;durP1;ratioP1;P1;durP2;ratioP2;P2;SDS_P1;SDS_P2;PMS_P1;PMS_P2;Temp;Humidity;BMP_temperature;BMP_pressure;BME280_temperature;BME280_humidity;BME280_pressure;Samples;Min_cycle;Max_cycle;Signal;HPM_P1;HPM_P2
2021/03/22 00:00:50;;;;;;;70.55;25.72;;;;;;;-0.30;76.94;100568.36;4846678;60;1141025;-76
2021/03/22 00:05:57;;;;;;;103.27;29.27;;;;;;;-0.44;77.78;100571.39;4846127;59;1140780;-77
2021/03/22 00:11:04;;;;;;;117.83;31.73;;;;;;;-0.45;77.87;100584.43;4924144;58;1143027;-77
2021/03/22 00:16:12;;;;;;;62.40;19.23;;;;;;;-0.46;78.11;100575.78;4846592;60;1143053;-78
2021/03/22 00:21:18;;;;;;;57.07;19.53;;;;;;;-0.47;78.28;100583.21;4846551;60;1140718;-75
2021/03/22 00:26:23;;;;;;;40.10;14.33;;;;;;;-0.51;78.22;100588.54;4924117;58;1140559;-76
2021/03/22 00:31:29;;;;;;;44.03;15.63;;;;;;;-0.58;78.24;100583.97;4846518;60;1140455;-75
2021/03/22 00:36:34;;;;;;;34.97;13.27;;;;;;;-0.60;78.74;100575.37;4828030;59;1140543;-74
2021/03/22 00:41:40;;;;;;;35.37;13.17;;;;;;;-0.51;79.27;100572.95;4924084;58;1140722;-80
2021/03/22 00:46:46;;;;;;;32.95;13.20;;;;;;;-0.47;78.74;100571.52;4846712;60;1140565;-76
2021/03/22 00:51:51;;;;;;;29.02;12.30;;;;;;;-0.45;78.94;100564.95;4846494;59;1140947;-82
2021/03/22 00:56:58;;;;;;;36.23;14.73;;;;;;;-0.48;78.49;100567.22;4923604;58;1140528;-76
2021/03/22 01:02:05;;;;;;;30.48;12.00;;;;;;;-0.55;78.74;100564.40;4846219;59;1140624;-77
2021/03/22 01:07:11;;;;;;;32.43;13.07;;;;;;;-0.57;78.67;100554.50;4846323;60;1140517;-80
2021/03/22 01:12:17;;;;;;;28.20;12.17;;;;;;;-0.70;78.41;100550.59;4924292;58;1140534;-80
2021/03/22 01:17:22;;;;;;;174.37;34.30;;;;;;;-0.82;78.47;100546.63;4847091;60;1140474;-81
2021/03/22 01:22:28;;;;;;;136.00;30.63;;;;;;;-0.93;78.67;100545.27;4845397;59;1142696;-76
2021/03/22 01:27:39;;;;;;;61.60;17.20;;;;;;;-0.99;79.08;100554.52;4941535;58;1142846;-81
2021/03/22 01:32:44;;;;;;;31.93;11.63;;;;;;;-1.01;79.37;100542.88;5000959;57;1141364;-79
2021/03/22 01:37:50;;;;;;;28.55;11.95;;;;;;;-1.01;79.65;100538.14;5004279;57;1141130;-82
2021/03/22 01:43:05;;;;;;;37.33;14.17;;;;;;;-1.04;79.88;100538.22;5004177;57;1141260;-81
2021/03/22 15:22:12;;;;;;;16.87;7.17;;;;;;;11.38;38.30;100823.33;5246720;54;46130;-76
2021/03/22 15:27:21;;;;;;;7.60;4.03;;;;;;;11.14;38.46;100816.30;4990904;57;1136761;-75
2021/03/22 15:32:26;;;;;;;10.07;4.87;;;;;;;11.05;38.84;100827.55;4969779;57;1138686;-75
2021/03/22 15:37:32;;;;;;;10.70;5.80;;;;;;;10.98;39.51;100832.11;5078666;56;1140713;-80
2021/03/22 15:42:38;;;;;;;13.60;7.45;;;;;;;10.92;39.57;100834.24;4920241;58;1140649;-77
2021/03/22 15:47:43;;;;;;;21.80;11.73;;;;;;;10.82;40.42;100831.08;4974416;57;1141165;-74
2021/03/22 15:52:49;;;;;;;14.40;8.13;;;;;;;10.68;40.90;100832.56;4939148;57;1143018;-75
2021/03/22 15:57:56;;;;;;;19.13;6.57;;;;;;;10.68;40.90;100832.56;5100595;56;1141214;-75
2021/03/22 16:03:11;;;;;;;12.70;7.53;;;;;;;10.61;41.53;100839.24;5094198;56;1141393;-76
2021/03/22 16:08:18;;;;;;;15.03;8.20;;;;;;;10.47;41.02;100837.60;5124131;56;1141387;-75
2021/03/22 16:13:28;;;;;;;16.30;6.10;;;;;;;10.33;41.11;100845.20;5037580;56;1141048;-76
2021/03/22 16:18:34;;;;;;;13.07;6.53;;;;;;;10.20;40.36;100841.27;5061346;56;1141329;-75
2021/03/22 16:23:40;;;;;;;12.80;6.53;;;;;;;10.05;41.20;100854.69;4982290;58;1140930;-75
2021/03/22 16:28:46;;;;;;;27.07;11.08;;;;;;;9.89;41.19;100868.12;4965494;58;1140959;-76
2021/03/22 16:33:52;;;;;;;28.47;10.63;;;;;;;9.80;40.88;100863.45;4947467;59;1173026;-76
2021/03/22 16:38:58;;;;;;;55.70;24.03;;;;;;;9.73;41.54;100867.48;4942131;58;1140773;-74
2021/03/22 16:44:03;;;;;;;48.95;22.58;;;;;;;9.59;41.36;100864.94;5011148;57;1140740;-74
2021/03/22 16:49:09;;;;;;;24.70;10.30;;;;;;;9.42;42.27;100867.39;4989368;57;1138858;-75
2021/03/22 16:54:14;;;;;;;41.63;23.63;;;;;;;9.25;41.98;100868.98;4990628;57;1138708;-77
2021/03/22 16:59:20;;;;;;;69.40;40.10;;;;;;;9.06;42.35;100872.84;4990472;57;1138885;-76
2021/03/22 17:04:26;;;;;;;100.13;50.83;;;;;;;8.95;42.85;100879.77;4990513;57;1138679;-76
2021/03/22 17:09:31;;;;;;;144.05;76.72;;;;;;;8.90;43.37;100890.61;4989967;57;1140819;-75
2021/03/22 17:14:37;;;;;;;92.63;50.43;;;;;;;8.90;43.63;100887.97;4990753;57;1140760;-80
2021/03/22 17:19:42;;;;;;;58.70;25.17;;;;;;;8.91;43.50;100892.30;4990454;57;1138596;-81
2021/03/22 17:24:53;;;;;;;39.80;18.87;;;;;;;8.85;43.70;100890.55;5058269;57;1138546;-81
2021/03/22 17:30:00;;;;;;;41.60;19.33;;;;;;;8.79;43.59;100893.09;4978009;58;1138606;-79
2021/03/22 17:35:13;;;;;;;57.13;20.50;;;;;;;8.72;43.66;100895.73;4997585;57;1138636;-81
2021/03/22 17:40:26;;;;;;;119.00;51.60;;;;;;;8.65;43.96;100897.94;5019419;57;1138975;-79
2021/03/22 17:45:35;;;;;;;244.47;93.33;;;;;;;8.55;44.10;100907.85;4995184;57;1140622;-78
2021/03/22 17:50:42;;;;;;;92.73;37.27;;;;;;;8.42;44.71;100906.43;5013893;57;1140708;-81
2021/03/22 17:55:48;;;;;;;24.47;7.80;;;;;;;8.27;45.07;100913.47;4976775;58;1138698;-81
2021/03/22 18:00:54;;;;;;;31.60;14.40;;;;;;;8.12;45.72;100924.48;4932403;58;1136543;-79
2021/03/22 18:05:59;;;;;;;19.20;7.55;;;;;;;8.06;46.38;100927.97;4905279;58;1138829;-80
2021/03/22 18:11:05;;;;;;;27.80;8.13;;;;;;;7.97;46.67;100935.09;4914521;58;1137059;-81
2021/03/22 18:16:14;;;;;;;26.50;11.12;;;;;;;7.85;46.91;100939.31;4914567;58;1136510;-78
2021/03/22 18:21:19;;;;;;;25.73;11.63;;;;;;;7.71;47.14;100946.72;4914378;58;1138661;-78
2021/03/22 18:26:25;;;;;;;18.73;8.80;;;;;;;7.54;47.23;100949.95;4883756;58;1138703;-80
2021/03/22 18:31:30;;;;;;;25.30;10.70;;;;;;;7.32;47.45;100955.16;4938972;58;1136794;-79
2021/03/22 18:36:36;;;;;;;29.10;10.50;;;;;;;7.25;47.91;100964.78;4990255;57;1138619;-77
2021/03/22 18:41:42;;;;;;;43.73;13.30;;;;;;;7.16;48.10;100965.31;4993508;57;1138612;-79
2021/03/22 18:46:48;;;;;;;48.70;18.70;;;;;;;7.08;48.39;100970.99;4993415;57;1138407;-77
2021/03/22 18:51:54;;;;;;;51.43;21.67;;;;;;;7.05;49.04;100973.31;4993572;57;1138681;-77
2021/03/22 18:57:00;;;;;;;55.97;22.47;;;;;;;7.04;48.98;100978.66;4956677;57;1138624;-80
2021/03/22 19:02:06;;;;;;;39.13;18.57;;;;;;;7.06;49.25;100977.65;4910508;57;1139158;-79
2021/03/22 19:07:12;;;;;;;45.75;22.32;;;;;;;7.10;48.92;100985.38;4807398;59;1138499;-79
2021/03/22 19:12:18;;;;;;;45.30;21.20;;;;;;;6.93;48.66;100990.25;4914058;58;1138525;-79
2021/03/22 19:17:24;;;;;;;23.90;11.40;;;;;;;6.83;49.01;100997.80;4933755;59;1138957;-79
2021/03/22 19:22:29;;;;;;;29.27;13.20;;;;;;;6.75;48.82;101001.76;4909146;59;1138973;-78
2021/03/22 19:27:35;;;;;;;29.37;13.37;;;;;;;6.60;49.05;100999.48;4960958;57;1138618;-77
2021/03/22 19:32:40;;;;;;;34.43;12.67;;;;;;;6.56;49.86;101001.45;4992896;58;1138636;-77
2021/03/22 19:37:46;;;;;;;45.83;14.67;;;;;;;6.58;49.87;101003.97;4946272;58;1138604;-77
2021/03/22 19:42:53;;;;;;;39.63;17.93;;;;;;;6.45;49.88;101014.29;4993632;58;1138559;-78
2021/03/22 19:47:58;;;;;;;33.97;16.77;;;;;;;6.47;50.62;101016.37;4962869;59;1138543;-76
2021/03/22 19:53:10;;;;;;;32.67;14.47;;;;;;;6.60;51.02;101017.89;4976886;57;1139085;-76
2021/03/22 19:58:15;;;;;;;39.95;15.40;;;;;;;6.62;50.95;101010.77;4994008;58;1138607;-77
2021/03/22 20:03:22;;;;;;;42.60;18.40;;;;;;;6.55;51.13;101016.84;4995175;58;1138923;-78
2021/03/22 20:08:27;;;;;;;50.83;19.40;;;;;;;6.50;51.26;101021.48;4964333;58;1138649;-76
2021/03/22 20:13:45;;;;;;;42.30;18.13;;;;;;;6.46;51.41;101023.87;4964444;58;1138464;-77
2021/03/22 20:18:43;;;;;;;48.08;19.65;;;;;;;6.45;51.54;101027.43;4962686;58;1138399;-81
2021/03/22 20:23:50;;;;;;;47.40;19.47;;;;;;;6.44;51.56;101026.19;4974998;58;1138816;-82
2021/03/22 20:28:58;;;;;;;45.47;20.53;;;;;;;6.43;51.54;101031.06;4974154;57;1138840;-82
2021/03/22 20:34:03;;;;;;;34.38;15.23;;;;;;;6.40;51.71;101036.50;4958250;58;1138669;-80
2021/03/22 20:39:10;;;;;;;29.27;11.97;;;;;;;6.26;51.45;101026.22;4931819;58;1138430;-81
2021/03/22 20:44:16;;;;;;;25.60;9.93;;;;;;;6.22;51.61;101027.78;4954304;58;1139132;-80
2021/03/22 20:49:21;;;;;;;23.73;11.13;;;;;;;6.12;51.44;101016.88;4902178;58;1136379;-77
2021/03/22 20:54:27;;;;;;;36.10;17.40;;;;;;;5.97;51.02;101021.14;4870764;59;1138670;-81
2021/03/22 20:59:33;;;;;;;37.90;17.40;;;;;;;5.86;51.71;101018.18;4988697;58;1138396;-80
2021/03/22 21:04:38;;;;;;;43.13;17.77;;;;;;;5.91;52.40;101017.99;4916446;59;1138877;-80
2021/03/22 21:09:44;;;;;;;79.43;32.73;;;;;;;5.92;52.84;101021.86;4880829;59;1138377;-81
2021/03/22 21:14:49;;;;;;;39.63;14.87;;;;;;;5.90;52.91;101021.55;4941151;58;1138969;-79
2021/03/22 21:19:54;;;;;;;78.13;29.83;;;;;;;5.79;52.31;101011.55;4905936;59;1138659;-79
2021/03/22 21:25:00;;;;;;;289.73;96.80;;;;;;;5.69;53.30;101017.31;4922519;58;1139105;-78
2021/03/22 21:30:08;;;;;;;389.25;139.20;;;;;;;5.70;53.58;101012.45;5066585;57;1141030;-76
2021/03/22 21:35:18;;;;;;;158.50;65.32;;;;;;;5.72;53.69;101014.08;5041270;57;1142850;-80
2021/03/22 21:40:27;;;;;;;151.70;58.17;;;;;;;5.72;53.74;101006.67;5054877;57;1140604;-78
2021/03/22 21:45:36;;;;;;;98.13;39.47;;;;;;;5.71;54.06;101004.51;5075708;57;1140640;-79
2021/03/22 21:50:42;;;;;;;166.27;70.30;;;;;;;5.68;54.25;101015.16;4983644;57;1138434;-79
2021/03/22 21:55:48;;;;;;;139.93;58.13;;;;;;;5.58;54.49;101009.52;5070556;57;1140472;-78
2021/03/22 22:00:54;;;;;;;170.67;69.60;;;;;;;5.49;54.78;101006.05;5092138;57;1140541;-79
2021/03/22 22:06:00;;;;;;;121.30;49.03;;;;;;;5.42;55.10;101014.27;5075428;57;1141401;-79
2021/03/22 22:11:05;;;;;;;169.27;71.67;;;;;;;5.37;55.39;101009.23;5095145;57;1140605;-78
2021/03/22 22:16:11;;;;;;;124.02;51.18;;;;;;;5.35;55.79;101016.33;5094836;57;1140733;-79
2021/03/22 22:21:18;;;;;;;94.60;40.50;;;;;;;5.34;56.18;101015.97;5094797;57;1140719;-79
2021/03/22 22:26:24;;;;;;;96.57;38.28;;;;;;;5.31;56.20;101016.11;5094939;57;1138583;-80
2021/03/22 22:31:31;;;;;;;46.77;19.40;;;;;;;5.21;56.00;101008.27;5089813;57;1138524;-79
2021/03/22 22:36:36;;;;;;;74.20;28.70;;;;;;;5.04;55.78;101008.25;5083983;57;1138920;-78
2021/03/22 22:41:42;;;;;;;72.27;29.87;;;;;;;4.81;56.20;101012.77;5083890;57;1138823;-80
2021/03/22 22:46:47;;;;;;;41.77;16.07;;;;;;;4.70;56.51;101009.80;5084058;57;1138445;-79
2021/03/22 22:51:53;;;;;;;57.67;22.90;;;;;;;4.57;56.77;101005.58;5084033;57;1138402;-79
2021/03/22 22:57:00;;;;;;;46.03;17.20;;;;;;;4.47;56.96;101006.03;5083989;57;1138860;-79
2021/03/22 23:02:07;;;;;;;39.08;14.23;;;;;;;4.41;57.00;101001.94;4990985;57;1138547;-81
2021/03/22 23:07:14;;;;;;;38.70;15.60;;;;;;;4.40;57.01;101006.78;5093717;56;1138939;-79
2021/03/22 23:12:20;;;;;;;27.03;12.13;;;;;;;4.47;56.99;101008.66;5149821;56;1138784;-80
2021/03/22 23:17:25;;;;;;;30.97;12.40;;;;;;;4.45;56.61;101002.63;5149431;56;1138804;-80
2021/03/22 23:22:31;;;;;;;37.83;16.20;;;;;;;4.40;56.70;101000.70;5149792;56;1138741;-78
2021/03/22 23:27:36;;;;;;;46.97;19.27;;;;;;;4.38;56.51;100994.21;5149974;56;1138845;-79
2021/03/22 23:32:42;;;;;;;37.33;17.00;;;;;;;4.26;56.31;100993.91;5149533;56;1138760;-79
2021/03/22 23:37:47;;;;;;;43.77;18.63;;;;;;;4.11;56.46;100994.13;5149808;56;1138365;-78
2021/03/22 23:42:53;;;;;;;42.03;15.07;;;;;;;4.02;56.60;100995.34;5150511;56;1138344;-80
2021/03/22 23:48:03;;;;;;;44.03;16.00;;;;;;;3.97;56.74;100993.87;5150826;56;1138460;-80
2021/03/22 23:53:09;;;;;;;41.90;14.47;;;;;;;3.96;56.92;100997.40;5150577;56;1138893;-78
2021/03/22 23:58:19;;;;;;;35.23;12.10;;;;;;;3.82;56.81;101001.42;5150447;56;1139004;-79
